Time;durP1;ratioP1;P1;durP2;ratioP2;P2;SDS_P1;SDS_P2;PMS_P1;PMS_P2;Temp;Humidity;BMP_temperature;BMP_pressure;BME280_temperature;BME280_humidity;BME280_pressure;Samples;Min_cycle;Max_cycle;Signal;HPM_P1;HPM_P2
2023/06/09 00:00:31;;;;;;;5.80;4.90;;;;;;;19.98;53.41;98818.34;7298757;39;20991;31
2023/06/09 00:10:57;;;;;;;5.85;4.95;;;;;;;20.15;54.04;98824.78;7328782;39;20324;31
2023/06/09 00:21:37;;;;;;;5.35;4.85;;;;;;;19.71;53.91;98822.56;7352606;39;21222;31
2023/06/09 00:27:10;;;;;;;5.70;5.05;;;;;;;19.40;55.63;98820.91;7302857;39;20284;31
2023/06/09 00:37:50;;;;;;;5.60;5.00;;;;;;;19.33;55.00;98817.44;7257281;40;21102;31
2023/06/09 00:43:12;;;;;;;5.55;4.60;;;;;;;19.45;54.32;98809.31;7230440;40;20244;31
2023/06/09 00:48:46;;;;;;;6.60;5.15;;;;;;;19.40;54.56;98809.12;7296367;39;20232;31
2023/06/09 00:54:20;;;;;;;5.60;5.10;;;;;;;19.26;54.90;98808.50;7300799;40;20340;31
2023/06/09 00:59:41;;;;;;;5.87;4.63;;;;;;;19.29;54.82;98814.34;7278418;39;20261;31
2023/06/09 01:05:16;;;;;;;5.43;4.93;;;;;;;19.15;55.17;98807.38;7280674;39;20310;31
2023/06/09 01:10:51;;;;;;;5.80;4.90;;;;;;;19.19;55.79;98808.59;7223823;40;20249;31
2023/06/09 01:16:28;;;;;;;5.90;5.30;;;;;;;19.02;56.22;98801.28;7215180;40;20242;31
2023/06/09 01:22:04;;;;;;;7.10;5.28;;;;;;;18.83;57.22;98798.56;7203988;40;20253;31
2023/06/09 01:27:39;;;;;;;5.87;4.87;;;;;;;18.88;55.89;98795.16;7262124;39;20257;31
2023/06/09 01:33:14;;;;;;;6.00;5.40;;;;;;;18.83;56.07;98803.19;7266576;40;20272;31
2023/06/09 01:38:49;;;;;;;5.60;5.00;;;;;;;18.78;55.73;98794.88;7239766;40;20241;31
2023/06/09 01:44:26;;;;;;;5.60;4.90;;;;;;;18.75;55.57;98798.03;7237094;40;20254;31
2023/06/09 01:50:00;;;;;;;6.10;5.40;;;;;;;18.58;56.68;98789.63;7242054;40;20336;31
2023/06/09 01:55:36;;;;;;;5.78;5.07;;;;;;;18.48;57.04;98792.03;7276224;39;20249;31
2023/06/09 02:07:16;;;;;;;6.30;5.00;;;;;;;18.05;57.79;98799.41;7237188;40;20521;31
2023/06/09 02:17:52;;;;;;;6.37;5.53;;;;;;;18.10;56.89;98802.28;7306982;39;21070;31
2023/06/09 02:28:33;;;;;;;6.46;5.76;;;;;;;17.90;58.97;98786.94;7286556;39;20383;31
2023/06/09 02:33:54;;;;;;;5.80;5.20;;;;;;;17.87;57.78;98792.84;7297441;39;20357;31
2023/06/09 02:39:29;;;;;;;6.70;5.80;;;;;;;17.88;58.96;98801.88;7272579;40;20512;31
2023/06/09 02:45:02;;;;;;;11.10;6.40;;;;;;;17.86;59.45;98788.44;7079311;40;21219;31
2023/06/09 02:55:44;;;;;;;6.23;5.63;;;;;;;18.00;59.27;98795.47;7272236;39;20269;31
2023/06/09 03:01:19;;;;;;;7.57;6.07;;;;;;;17.83;60.16;98788.06;7289647;39;20273;31
2023/06/09 03:06:54;;;;;;;6.45;5.75;;;;;;;17.65;60.41;98790.72;7235055;40;20244;31
2023/06/09 03:12:30;;;;;;;7.57;5.40;;;;;;;17.56;60.29;98798.31;7277838;40;20237;31
2023/06/09 03:18:07;;;;;;;6.90;6.27;;;;;;;17.48;60.63;98793.97;7263061;40;20256;31
2023/06/09 03:23:43;;;;;;;6.80;6.10;;;;;;;17.50;59.98;98789.16;7292454;39;20244;31
2023/06/09 03:29:19;;;;;;;7.23;5.73;;;;;;;17.45;61.71;98785.41;7257169;40;20253;31
2023/06/09 03:34:55;;;;;;;6.70;6.00;;;;;;;17.38;61.62;98792.78;7243820;40;20285;31
2023/06/09 03:40:31;;;;;;;6.23;5.63;;;;;;;17.27;61.46;98798.94;7263756;40;20397;31
2023/06/09 03:46:06;;;;;;;7.20;6.10;;;;;;;17.36;62.05;98798.47;7257719;40;20257;31
2023/06/09 03:51:42;;;;;;;6.53;5.77;;;;;;;17.40;63.33;98799.69;7208424;40;20246;31
2023/06/09 03:57:18;;;;;;;6.60;5.93;;;;;;;17.48;62.34;98809.50;7237679;40;20241;31
2023/06/09 04:02:54;;;;;;;6.50;5.90;;;;;;;17.60;62.67;98807.75;7247066;40;20270;31
2023/06/09 04:08:31;;;;;;;8.00;6.27;;;;;;;17.46;63.34;98814.34;7207206;40;20265;31
2023/06/09 04:13:52;;;;;;;7.97;6.37;;;;;;;17.39;63.50;98811.66;7171175;40;20320;31
2023/06/09 04:19:27;;;;;;;6.80;6.10;;;;;;;17.44;64.13;98817.28;7178181;40;20245;31
2023/06/09 04:25:03;;;;;;;9.45;6.30;;;;;;;17.48;65.36;98812.22;7254659;40;20334;31
2023/06/09 04:30:38;;;;;;;8.88;6.62;;;;;;;17.65;64.16;98820.72;7243075;40;21238;31
2023/06/09 04:36:13;;;;;;;9.30;6.30;;;;;;;17.81;64.49;98821.03;7246311;40;20261;31
2023/06/09 04:41:49;;;;;;;7.87;6.87;;;;;;;17.87;64.46;98809.22;7251296;40;20245;31
2023/06/09 04:47:25;;;;;;;6.97;6.27;;;;;;;18.00;63.71;98808.25;7266205;40;20307;31
2023/06/09 04:52:47;;;;;;;7.60;6.50;;;;;;;18.04;64.30;98806.75;7267720;40;20349;31
2023/06/09 04:58:23;;;;;;;7.70;6.22;;;;;;;18.20;64.65;98813.53;7248737;40;20403;31
2023/06/09 05:03:45;;;;;;;7.70;6.37;;;;;;;18.35;63.85;98816.72;7282271;39;20244;31
2023/06/09 05:09:17;;;;;;;7.80;6.50;;;;;;;18.46;65.13;98813.25;7322528;39;20356;31
2023/06/09 05:14:54;;;;;;;7.70;6.43;;;;;;;18.65;64.82;98816.88;7255320;40;20305;31
2023/06/09 05:20:30;;;;;;;8.20;6.60;;;;;;;18.81;64.46;98825.28;7212015;40;20320;31
2023/06/09 05:25:50;;;;;;;8.50;6.70;;;;;;;19.03;63.72;98835.72;7237361;40;20319;31
2023/06/09 05:31:26;;;;;;;7.70;6.83;;;;;;;19.17;64.10;98820.84;7236763;40;20307;31
2023/06/09 05:36:47;;;;;;;9.07;7.77;;;;;;;19.25;63.58;98837.75;7206371;40;20249;31
2023/06/09 05:42:22;;;;;;;8.10;7.30;;;;;;;19.37;63.32;98827.69;7192983;40;20242;31
2023/06/09 05:47:58;;;;;;;8.30;7.40;;;;;;;19.56;63.90;98841.31;7228344;40;20290;31
2023/06/09 05:53:34;;;;;;;8.40;7.30;;;;;;;19.75;63.02;98838.28;7217507;40;20256;31
2023/06/09 05:59:08;;;;;;;9.28;7.66;;;;;;;19.79;62.91;98849.56;7202429;40;20241;31
2023/06/09 06:04:45;;;;;;;11.73;7.63;;;;;;;19.84;63.58;98835.19;7232380;40;20262;31
2023/06/09 06:10:20;;;;;;;9.07;7.37;;;;;;;19.99;62.93;98832.84;7214159;40;20382;31
2023/06/09 06:15:55;;;;;;;9.07;7.13;;;;;;;20.14;63.02;98828.56;7202786;40;20242;31
2023/06/09 06:21:31;;;;;;;9.93;6.77;;;;;;;20.30;61.58;98838.03;7270276;39;20259;31
2023/06/09 06:26:52;;;;;;;8.70;6.60;;;;;;;20.47;61.91;98835.41;7253270;40;20241;31
2023/06/09 06:32:12;;;;;;;8.82;7.53;;;;;;;20.55;61.52;98840.50;7299682;40;20345;31
2023/06/09 06:37:48;;;;;;;8.82;7.60;;;;;;;20.58;61.92;98842.75;7264548;40;20272;31
2023/06/09 06:43:23;;;;;;;7.90;7.10;;;;;;;20.60;61.62;98841.47;7278832;39;20341;31
2023/06/09 06:48:58;;;;;;;8.05;7.25;;;;;;;20.85;61.57;98841.19;7267931;40;20234;31
2023/06/09 06:54:34;;;;;;;8.80;7.40;;;;;;;21.01;60.61;98848.66;7299372;40;20247;31
2023/06/09 07:00:14;;;;;;;8.30;7.50;;;;;;;21.07;61.46;98846.84;7241689;40;20249;31
2023/06/09 07:05:48;;;;;;;7.96;7.26;;;;;;;21.36;59.79;98843.09;7231827;40;20360;31
2023/06/09 07:11:24;;;;;;;8.73;7.30;;;;;;;21.55;60.36;98850.03;7217844;40;20303;31
2023/06/09 07:21:50;;;;;;;8.20;7.10;;;;;;;21.87;58.90;98866.81;7264313;40;20334;31
2023/06/09 07:27:25;;;;;;;11.35;6.60;;;;;;;22.04;58.22;98866.84;7292816;39;20350;31
2023/06/09 07:33:00;;;;;;;8.00;6.47;;;;;;;22.30;57.18;98865.34;7302069;39;20283;31
2023/06/09 07:38:21;;;;;;;8.95;6.62;;;;;;;22.44;57.09;98867.50;7238343;40;20256;31
2023/06/09 07:43:56;;;;;;;6.73;6.07;;;;;;;22.71;57.05;98866.84;7247778;40;20402;31
2023/06/09 07:49:17;;;;;;;8.98;6.62;;;;;;;22.99;55.40;98865.84;7197231;40;20254;31
2023/06/09 07:54:37;;;;;;;7.20;6.50;;;;;;;23.14;55.48;98858.63;7168356;40;20250;31
2023/06/09 08:00:10;;;;;;;8.55;6.50;;;;;;;23.21;55.49;98862.00;7208211;40;20240;31
2023/06/09 08:05:46;;;;;;;7.32;6.28;;;;;;;23.36;54.73;98864.94;7287723;39;20392;31
2023/06/09 08:11:20;;;;;;;9.68;7.40;;;;;;;23.43;54.34;98862.00;7264954;40;21096;31
2023/06/09 08:16:56;;;;;;;7.40;6.60;;;;;;;23.65;54.77;98851.78;7270704;40;20256;31
2023/06/09 08:22:16;;;;;;;7.72;6.15;;;;;;;23.87;53.82;98846.22;7276227;39;20285;31
2023/06/09 08:27:34;;;;;;;7.50;6.80;;;;;;;24.06;52.82;98841.16;7297664;39;20255;31
2023/06/09 08:38:15;;;;;;;7.45;6.62;;;;;;;24.34;52.92;98840.06;7307284;39;20321;31
2023/06/09 08:43:50;;;;;;;7.40;5.95;;;;;;;24.50;51.16;98842.66;7343290;39;20361;31
2023/06/09 08:54:28;;;;;;;6.30;5.70;;;;;;;24.99;50.43;98851.50;7319488;39;21015;31
2023/06/09 09:00:08;;;;;;;7.65;6.35;;;;;;;25.07;50.66;98831.69;7283455;40;20293;31
2023/06/09 09:05:25;;;;;;;8.20;5.97;;;;;;;25.18;49.22;98842.78;7265689;39;20453;31
2023/06/09 09:10:57;;;;;;;6.70;5.80;;;;;;;25.35;48.87;98846.16;7299794;39;20311;31
2023/06/09 09:16:15;;;;;;;5.95;5.25;;;;;;;25.67;48.61;98841.28;7068484;40;20424;31
2023/06/09 09:21:47;;;;;;;5.15;4.65;;;;;;;25.77;47.29;98838.53;7266885;40;20373;31
2023/06/09 09:27:28;;;;;;;5.10;4.60;;;;;;;25.87;46.84;98838.56;7275233;39;20265;31
2023/06/09 09:33:03;;;;;;;6.57;4.33;;;;;;;26.00;47.12;98839.94;7197973;40;20254;31
2023/06/09 09:38:38;;;;;;;4.72;3.92;;;;;;;26.06;45.80;98829.72;7218187;40;20312;31
2023/06/09 09:44:12;;;;;;;5.78;4.68;;;;;;;26.24;45.52;98829.22;7217231;40;20243;31
2023/06/09 09:49:32;;;;;;;5.80;4.50;;;;;;;26.52;46.28;98812.03;7251668;40;20252;31
2023/06/09 09:55:09;;;;;;;4.78;4.36;;;;;;;26.72;44.39;98813.94;7263461;39;20421;31
2023/06/09 10:00:46;;;;;;;6.10;4.50;;;;;;;26.81;43.87;98806.72;7300458;39;20241;31
2023/06/09 10:06:20;;;;;;;5.68;4.43;;;;;;;26.80;44.38;98805.06;7273142;39;20242;31
2023/06/09 10:11:55;;;;;;;4.30;3.90;;;;;;;26.99;44.45;98788.66;7278685;39;20242;31
2023/06/09 10:22:35;;;;;;;4.12;3.83;;;;;;;27.32;43.46;98799.88;7352605;39;21364;31
2023/06/09 10:33:14;;;;;;;4.28;3.87;;;;;;;27.66;42.32;98793.59;7287558;39;21325;31
2023/06/09 10:44:05;;;;;;;6.10;3.62;;;;;;;28.17;41.98;98799.59;7351668;39;20515;31
2023/06/09 10:49:49;;;;;;;4.97;4.00;;;;;;;28.15;41.26;98774.09;7361639;39;20358;31
2023/06/09 10:55:24;;;;;;;5.45;4.03;;;;;;;28.34;40.48;98783.38;7332520;39;20271;31
2023/06/09 11:01:22;;;;;;;3.90;3.47;;;;;;;28.50;39.04;98779.31;7277564;39;20322;31
2023/06/09 11:07:22;;;;;;;4.80;3.72;;;;;;;28.55;38.39;98776.47;7245880;40;20288;31
2023/06/09 11:12:57;;;;;;;4.35;3.30;;;;;;;28.66;38.49;98771.63;7220663;40;20250;31
2023/06/09 11:18:33;;;;;;;3.53;3.23;;;;;;;28.74;38.44;98770.22;7254144;40;20445;31
2023/06/09 11:24:09;;;;;;;4.95;3.60;;;;;;;28.92;37.62;98759.13;7258447;40;20268;31
2023/06/09 11:29:44;;;;;;;6.62;3.58;;;;;;;29.17;38.05;98759.94;7259473;39;20426;31
2023/06/09 11:35:21;;;;;;;3.97;3.10;;;;;;;29.26;37.90;98753.44;7321686;39;20315;31
2023/06/09 11:40:56;;;;;;;4.60;3.80;;;;;;;29.47;36.50;98759.53;7310657;39;20271;31
2023/06/09 11:51:36;;;;;;;4.80;3.53;;;;;;;29.17;37.04;98751.59;7352223;39;21195;31
2023/06/09 11:57:11;;;;;;;3.80;3.45;;;;;;;29.24;37.67;98744.56;7300159;39;20284;31
2023/06/09 12:02:46;;;;;;;4.97;3.47;;;;;;;29.33;36.71;98741.97;7319949;39;20244;31
2023/06/09 12:08:20;;;;;;;3.78;3.47;;;;;;;29.05;37.04;98735.37;7299361;40;20346;31
2023/06/09 12:13:59;;;;;;;3.30;2.97;;;;;;;29.18;36.46;98720.75;7242118;40;21081;31
2023/06/09 12:19:34;;;;;;;4.90;3.30;;;;;;;29.58;36.83;98721.28;7247949;40;20465;31
2023/06/09 12:25:10;;;;;;;5.13;3.40;;;;;;;29.64;36.85;98714.53;7234305;40;20727;31
2023/06/09 12:30:48;;;;;;;4.18;3.37;;;;;;;29.82;36.13;98716.47;7261023;39;20260;31
2023/06/09 12:36:23;;;;;;;6.87;3.53;;;;;;;29.83;35.36;98713.37;7279582;40;20330;31
2023/06/09 12:41:59;;;;;;;3.80;3.40;;;;;;;29.80;34.58;98715.94;7208065;40;20255;31
2023/06/09 12:47:34;;;;;;;3.65;3.25;;;;;;;29.87;34.70;98708.03;7236947;40;20253;31
2023/06/09 12:52:55;;;;;;;5.97;3.50;;;;;;;30.13;36.14;98700.94;7244510;40;20265;31
2023/06/09 12:58:28;;;;;;;3.40;3.10;;;;;;;30.30;35.08;98703.94;7225887;40;20249;31
2023/06/09 13:04:03;;;;;;;4.75;3.15;;;;;;;30.35;34.64;98697.44;7291755;39;20266;31
2023/06/09 13:09:38;;;;;;;3.72;3.33;;;;;;;30.46;34.58;98693.34;7273039;40;20431;31
2023/06/09 13:15:14;;;;;;;4.38;3.38;;;;;;;29.90;35.24;98701.91;7269071;40;20489;31
2023/06/09 13:25:53;;;;;;;4.37;3.37;;;;;;;30.37;34.41;98690.44;7281379;40;21155;31
2023/06/09 13:31:29;;;;;;;3.50;3.20;;;;;;;30.51;33.24;98695.22;7250029;40;20495;31
2023/06/09 13:36:48;;;;;;;3.54;3.18;;;;;;;30.49;32.30;98691.94;7284546;40;20241;31
2023/06/09 13:47:27;;;;;;;3.20;2.87;;;;;;;30.62;32.20;98675.25;7286578;39;20283;31
2023/06/09 13:53:00;;;;;;;5.70;3.15;;;;;;;30.60;32.47;98673.88;7325175;39;20394;31
2023/06/09 13:58:35;;;;;;;5.05;3.05;;;;;;;30.43;31.49;98661.41;7300843;39;20273;31
2023/06/09 14:04:12;;;;;;;5.25;3.12;;;;;;;30.56;30.77;98648.62;7282460;40;20268;31
2023/06/09 14:09:33;;;;;;;3.05;2.75;;;;;;;30.70;32.80;98651.41;7284430;39;20258;31
2023/06/09 14:15:12;;;;;;;3.45;2.95;;;;;;;30.81;32.42;98644.47;7246123;40;20254;31
2023/06/09 14:20:43;;;;;;;4.62;3.12;;;;;;;30.98;32.36;98633.50;7258855;40;20242;31
2023/06/09 14:26:18;;;;;;;3.95;3.20;;;;;;;30.96;31.13;98640.53;7244441;40;20363;31
2023/06/09 14:36:59;;;;;;;5.22;2.83;;;;;;;30.84;32.79;98622.44;7284530;39;21607;31
2023/06/09 14:47:23;;;;;;;3.58;3.20;;;;;;;30.25;32.21;98631.72;7288946;39;21350;31
2023/06/09 14:52:57;;;;;;;5.25;2.75;;;;;;;30.22;33.00;98621.22;7317039;39;20456;31
2023/06/09 14:58:32;;;;;;;4.03;2.92;;;;;;;30.54;32.27;98611.16;7315769;39;20279;31
2023/06/09 15:03:53;;;;;;;3.30;2.70;;;;;;;30.54;31.62;98608.38;7262036;40;20250;31
2023/06/09 15:09:29;;;;;;;7.30;2.97;;;;;;;30.52;32.28;98600.31;7311060;39;20260;31
2023/06/09 15:14:49;;;;;;;3.45;2.85;;;;;;;30.45;32.38;98596.31;7278534;39;20274;31
2023/06/09 15:20:24;;;;;;;3.33;2.70;;;;;;;30.59;31.96;98602.66;7318568;39;20500;31
2023/06/09 15:25:59;;;;;;;3.00;2.70;;;;;;;30.45;31.44;98596.31;7311883;39;20268;31
2023/06/09 15:31:18;;;;;;;3.85;2.85;;;;;;;30.58;30.97;98595.47;7297092;39;20437;31
2023/06/09 15:36:39;;;;;;;4.20;2.65;;;;;;;30.51;30.76;98607.00;7319059;39;20245;31
2023/06/09 15:42:12;;;;;;;3.10;2.65;;;;;;;30.20;31.82;98600.41;7108454;39;21209;31
2023/06/09 15:47:47;;;;;;;3.22;2.87;;;;;;;30.03;32.44;98595.47;7304932;39;20492;31
2023/06/09 15:53:22;;;;;;;3.00;2.70;;;;;;;30.30;32.33;98591.84;7221352;40;20606;31
2023/06/09 16:03:58;;;;;;;3.90;2.90;;;;;;;29.84;31.88;98591.94;7256345;40;20406;31
2023/06/09 16:09:33;;;;;;;4.57;3.35;;;;;;;29.79;32.22;98589.25;7283004;39;20397;31
2023/06/09 16:14:54;;;;;;;3.05;2.60;;;;;;;29.78;32.55;98588.41;7312328;39;20354;31
2023/06/09 16:20:32;;;;;;;3.87;2.72;;;;;;;29.90;32.92;98576.81;7320875;39;20367;31
2023/06/09 16:25:50;;;;;;;3.60;3.00;;;;;;;29.95;32.66;98577.56;7296830;39;20263;31
2023/06/09 16:31:10;;;;;;;3.53;2.75;;;;;;;29.86;31.09;98573.81;7307579;39;20257;31
2023/06/09 16:36:46;;;;;;;2.93;2.63;;;;;;;29.89;30.47;98583.50;7336825;39;20275;31
2023/06/09 16:42:06;;;;;;;3.80;3.08;;;;;;;29.75;32.10;98574.31;7323259;39;20568;31
2023/06/09 16:47:40;;;;;;;4.95;2.92;;;;;;;29.49;32.00;98585.88;7297834;39;20396;31
2023/06/09 16:53:17;;;;;;;3.44;3.14;;;;;;;29.37;32.64;98576.37;7299537;39;20337;31
2023/06/09 16:58:53;;;;;;;3.62;2.98;;;;;;;29.29;32.61;98593.72;7286239;40;20346;31
2023/06/09 17:04:28;;;;;;;3.40;3.10;;;;;;;29.19;32.60;98589.13;7298213;39;20248;31
2023/06/09 17:10:05;;;;;;;3.64;3.26;;;;;;;29.07;33.16;98591.56;7248627;40;20510;31
2023/06/09 17:15:40;;;;;;;5.28;3.12;;;;;;;29.04;33.26;98581.06;7259550;40;20336;31
2023/06/09 17:21:00;;;;;;;5.37;3.40;;;;;;;28.89;32.64;98597.94;7198522;40;20257;31
2023/06/09 17:26:37;;;;;;;5.50;3.20;;;;;;;28.77;33.77;98594.81;7202972;40;20332;31
2023/06/09 17:31:58;;;;;;;4.47;3.25;;;;;;;28.64;33.53;98597.19;7296374;39;20329;31
2023/06/09 17:37:33;;;;;;;4.10;3.70;;;;;;;28.61;33.02;98594.97;7348744;39;20295;31
2023/06/09 17:43:10;;;;;;;5.60;3.45;;;;;;;28.53;33.19;98606.75;7297410;39;20259;31
2023/06/09 17:48:45;;;;;;;4.90;3.40;;;;;;;28.39;33.19;98605.81;7353391;39;20326;31
2023/06/09 17:54:05;;;;;;;4.43;3.40;;;;;;;28.35;33.84;98604.75;7316211;39;20252;31
2023/06/09 17:59:41;;;;;;;4.80;3.67;;;;;;;28.30;34.29;98612.34;7329484;39;20291;31
2023/06/09 18:05:17;;;;;;;5.95;3.50;;;;;;;28.19;33.69;98618.00;7298644;39;20241;31
2023/06/09 18:10:37;;;;;;;7.83;3.67;;;;;;;28.13;34.84;98623.88;7270965;39;20256;31
2023/06/09 18:16:13;;;;;;;4.80;4.00;;;;;;;27.95;35.40;98625.44;7274198;39;20302;31
2023/06/09 18:26:39;;;;;;;4.43;3.65;;;;;;;27.85;35.48;98630.28;7272649;39;20277;31
2023/06/09 18:37:20;;;;;;;6.97;3.60;;;;;;;27.68;35.11;98637.09;7346872;39;21134;31
2023/06/09 18:42:56;;;;;;;4.35;3.60;;;;;;;27.68;35.78;98637.09;7361147;39;20255;31
2023/06/09 18:48:17;;;;;;;5.05;3.70;;;;;;;27.63;36.49;98637.13;7319467;39;20441;31
2023/06/09 18:53:53;;;;;;;3.70;3.40;;;;;;;27.49;35.91;98643.63;7321030;39;20252;31
2023/06/09 18:59:28;;;;;;;5.50;3.60;;;;;;;27.41;37.00;98652.53;7237483;40;20257;31
2023/06/09 19:04:50;;;;;;;4.07;3.62;;;;;;;27.33;36.62;98652.03;7213858;40;20278;31
2023/06/09 19:10:27;;;;;;;6.45;3.75;;;;;;;27.23;36.76;98643.81;7228352;40;20256;31
2023/06/09 19:21:06;;;;;;;5.65;4.50;;;;;;;26.85;39.01;98658.47;7335464;39;20267;31
2023/06/09 19:26:43;;;;;;;6.57;4.00;;;;;;;26.58;39.54;98655.25;7264132;40;20378;31
2023/06/09 19:32:16;;;;;;;4.47;4.07;;;;;;;26.31;40.51;98661.16;7268180;39;20273;31
2023/06/09 19:42:57;;;;;;;4.50;4.05;;;;;;;25.82;41.81;98683.91;7303181;39;21110;31
2023/06/09 19:53:36;;;;;;;5.30;4.20;;;;;;;25.50;42.01;98697.94;7300632;39;20460;31
2023/06/09 20:04:16;;;;;;;6.87;4.47;;;;;;;25.22;42.66;98714.22;7355770;39;20256;31
2023/06/09 20:09:37;;;;;;;6.85;4.03;;;;;;;24.99;44.01;98712.78;7319252;39;20263;31
2023/06/09 20:15:12;;;;;;;6.43;4.05;;;;;;;24.69;44.35;98708.81;7352241;39;20275;31
2023/06/09 20:20:47;;;;;;;5.25;3.90;;;;;;;24.57;43.99;98723.91;7343194;39;20256;31
2023/06/09 20:26:22;;;;;;;6.90;4.18;;;;;;;24.39;45.00;98719.69;7325353;39;20315;31
2023/06/09 20:31:58;;;;;;;5.55;4.40;;;;;;;24.31;43.95;98716.62;7330331;39;20263;31
2023/06/09 20:37:32;;;;;;;4.70;4.20;;;;;;;24.12;45.25;98730.78;7259513;39;20237;31
2023/06/09 20:43:11;;;;;;;6.58;4.08;;;;;;;24.03;45.08;98737.88;7251750;40;20527;31
2023/06/09 20:48:43;;;;;;;4.90;4.28;;;;;;;23.87;45.39;98738.84;7279162;40;20261;31
2023/06/09 20:54:20;;;;;;;7.57;4.45;;;;;;;23.79;46.06;98739.34;7247969;40;20254;31
2023/06/09 20:59:56;;;;;;;4.35;3.95;;;;;;;23.80;44.98;98746.53;7224227;40;20324;31
2023/06/09 21:05:32;;;;;;;7.20;5.02;;;;;;;23.88;44.22;98751.53;7232613;40;20424;31
2023/06/09 21:11:09;;;;;;;11.50;4.70;;;;;;;23.84;44.30;98744.91;7227229;40;20265;31
2023/06/09 21:16:30;;;;;;;5.65;4.40;;;;;;;23.97;43.91;98755.47;7235620;40;20267;31
2023/06/09 21:22:05;;;;;;;6.80;4.75;;;;;;;23.99;44.13;98753.28;7267154;40;20251;31
2023/06/09 21:27:41;;;;;;;6.98;4.70;;;;;;;23.89;44.97;98747.69;7255868;40;20458;31
2023/06/09 21:33:17;;;;;;;5.30;4.70;;;;;;;23.86;44.07;98752.91;7281465;40;20271;31
2023/06/09 21:38:53;;;;;;;8.74;5.40;;;;;;;23.75;43.81;98763.81;7282070;39;20249;31
2023/06/09 21:44:30;;;;;;;8.70;5.20;;;;;;;23.61;44.25;98759.00;7279719;39;20255;31
2023/06/09 21:49:50;;;;;;;5.57;5.00;;;;;;;23.61;43.17;98764.50;7251542;40;20312;31
2023/06/09 21:55:25;;;;;;;6.45;5.30;;;;;;;23.48;43.45;98775.94;7278473;39;20240;31
2023/06/09 22:01:01;;;;;;;5.10;4.60;;;;;;;23.38;44.95;98764.81;7272033;40;21330;31
2023/06/09 22:06:36;;;;;;;6.32;4.80;;;;;;;23.37;44.15;98764.00;7246340;40;20327;31
2023/06/09 22:11:56;;;;;;;5.85;5.00;;;;;;;23.36;43.94;98771.41;7271443;40;20256;31
2023/06/09 22:17:33;;;;;;;5.65;4.75;;;;;;;23.27;44.56;98772.13;7259441;40;20447;31
2023/06/09 22:23:07;;;;;;;4.95;4.45;;;;;;;23.15;45.47;98780.53;7224320;40;20280;31
2023/06/09 22:28:42;;;;;;;5.65;5.10;;;;;;;23.10;45.42;98771.41;7284032;40;20446;31
2023/06/09 22:34:15;;;;;;;8.02;5.00;;;;;;;23.12;45.19;98781.06;7042856;40;20241;31
2023/06/09 22:39:50;;;;;;;10.52;5.80;;;;;;;23.07;45.01;98777.41;7274921;40;20262;31
2023/06/09 22:45:25;;;;;;;8.00;4.82;;;;;;;23.03;45.73;98776.28;7268166;40;20284;31
2023/06/09 22:51:01;;;;;;;5.35;4.85;;;;;;;23.09;45.68;98770.56;7194353;40;20254;31
2023/06/09 22:56:37;;;;;;;6.97;5.40;;;;;;;22.96;46.09;98776.47;7210138;40;20245;31
2023/06/09 23:01:56;;;;;;;6.80;5.20;;;;;;;22.92;45.10;98778.06;7208165;40;20325;31
2023/06/09 23:07:30;;;;;;;5.65;4.75;;;;;;;22.99;45.95;98781.47;7219649;40;20259;31
2023/06/09 23:12:50;;;;;;;5.60;4.95;;;;;;;23.03;45.80;98777.09;7251352;40;20249;31
2023/06/09 23:18:11;;;;;;;7.05;5.35;;;;;;;23.08;45.70;98782.63;7266182;40;20255;31
2023/06/09 23:23:49;;;;;;;6.20;5.03;;;;;;;22.99;45.68;98786.97;7299481;39;20244;31
2023/06/09 23:29:22;;;;;;;6.10;5.03;;;;;;;22.85;45.37;98774.69;7286449;40;20316;31
2023/06/09 23:40:05;;;;;;;5.60;5.00;;;;;;;22.75;46.32;98767.13;7319417;39;20264;31
2023/06/09 23:45:25;;;;;;;6.22;5.50;;;;;;;22.76;46.32;98773.47;7298561;39;20372;31
2023/06/09 23:56:03;;;;;;;6.68;5.37;;;;;;;22.57;46.47;98767.41;7300544;40;21104;31
